sensor_id;sensor_type;location;lat;lon;timestamp;pressure;altitude;pressure_sealevel;temperature;humidity
68329;BME280;55182;56.864;60.554;2022-11-20T00:00:24;78844.47;;;-143.60;80.46
68329;BME280;55182;56.864;60.554;2022-11-20T00:02:49;78836.44;;;-143.60;80.53
68329;BME280;55182;56.864;60.554;2022-11-20T00:05:15;78840.47;;;-143.60;80.46
68329;BME280;55182;56.864;60.554;2022-11-20T00:07:40;78836.44;;;-143.60;80.84
68329;BME280;55182;56.864;60.554;2022-11-20T00:10:05;78846.50;;;-143.60;80.82
68329;BME280;55182;56.864;60.554;2022-11-20T00:12:31;78838.44;;;-143.60;81.22
68329;BME280;55182;56.864;60.554;2022-11-20T00:14:57;78836.44;;;-143.60;81.04
68329;BME280;55182;56.864;60.554;2022-11-20T00:17:22;78826.38;;;-143.60;80.97
68329;BME280;55182;56.864;60.554;2022-11-20T00:19:48;78826.38;;;-143.60;81.04
68329;BME280;55182;56.864;60.554;2022-11-20T00:22:13;78826.38;;;-143.60;80.95
68329;BME280;55182;56.864;60.554;2022-11-20T00:24:39;78824.38;;;-143.60;80.82
68329;BME280;55182;56.864;60.554;2022-11-20T00:27:04;78820.34;;;-143.60;80.53
68329;BME280;55182;56.864;60.554;2022-11-20T00:29:30;78830.41;;;-143.60;80.48
68329;BME280;55182;56.864;60.554;2022-11-20T00:31:55;78832.41;;;-143.60;80.43
68329;BME280;55182;56.864;60.554;2022-11-20T00:34:20;78832.41;;;-143.60;80.57
68329;BME280;55182;56.864;60.554;2022-11-20T00:36:46;78840.47;;;-143.60;80.42
68329;BME280;55182;56.864;60.554;2022-11-20T00:39:11;78838.44;;;-143.60;80.35
68329;BME280;55182;56.864;60.554;2022-11-20T00:41:37;78832.41;;;-143.60;80.18
68329;BME280;55182;56.864;60.554;2022-11-20T00:44:02;78838.44;;;-143.60;80.30
68329;BME280;55182;56.864;60.554;2022-11-20T00:46:28;78828.41;;;-143.60;80.19
68329;BME280;55182;56.864;60.554;2022-11-20T00:48:53;78832.41;;;-143.60;80.17
68329;BME280;55182;56.864;60.554;2022-11-20T00:51:19;78840.47;;;-143.60;79.99
68329;BME280;55182;56.864;60.554;2022-11-20T00:53:45;78842.47;;;-143.60;80.04
68329;BME280;55182;56.864;60.554;2022-11-20T00:56:11;78848.50;;;-143.60;80.02
68329;BME280;55182;56.864;60.554;2022-11-20T00:58:38;78840.47;;;-143.60;80.09
68329;BME280;55182;56.864;60.554;2022-11-20T01:01:07;78852.53;;;-143.60;80.22
68329;BME280;55182;56.864;60.554;2022-11-20T01:03:34;78856.53;;;-143.60;80.36
68329;BME280;55182;56.864;60.554;2022-11-20T01:06:01;78850.50;;;-143.60;80.27
68329;BME280;55182;56.864;60.554;2022-11-20T01:08:28;78852.53;;;-143.60;80.26
68329;BME280;55182;56.864;60.554;2022-11-20T01:10:58;78850.50;;;-143.60;80.22
68329;BME280;55182;56.864;60.554;2022-11-20T01:13:23;78852.53;;;-143.60;80.25
68329;BME280;55182;56.864;60.554;2022-11-20T01:15:49;78846.50;;;-143.60;80.41
68329;BME280;55182;56.864;60.554;2022-11-20T01:18:14;78844.47;;;-143.60;80.25
68329;BME280;55182;56.864;60.554;2022-11-20T01:20:39;78848.50;;;-143.60;80.03
68329;BME280;55182;56.864;60.554;2022-11-20T01:23:05;78844.47;;;-143.60;80.20
68329;BME280;55182;56.864;60.554;2022-11-20T01:25:30;78844.47;;;-143.60;80.22
68329;BME280;55182;56.864;60.554;2022-11-20T01:27:55;78842.47;;;-143.60;80.17
68329;BME280;55182;56.864;60.554;2022-11-20T01:30:21;78840.47;;;-143.60;80.15
68329;BME280;55182;56.864;60.554;2022-11-20T01:32:46;78840.47;;;-143.60;80.02
68329;BME280;55182;56.864;60.554;2022-11-20T01:35:12;78844.47;;;-143.60;80.02
68329;BME280;55182;56.864;60.554;2022-11-20T01:37:37;78842.47;;;-143.60;79.69
68329;BME280;55182;56.864;60.554;2022-11-20T01:40:03;78844.47;;;-143.60;79.63
68329;BME280;55182;56.864;60.554;2022-11-20T01:42:28;78844.47;;;-143.60;79.81
68329;BME280;55182;56.864;60.554;2022-11-20T01:44:55;78850.50;;;-143.60;79.53
68329;BME280;55182;56.864;60.554;2022-11-20T01:47:24;78844.47;;;-143.60;79.77
68329;BME280;55182;56.864;60.554;2022-11-20T01:49:52;78842.47;;;-143.60;79.78
68329;BME280;55182;56.864;60.554;2022-11-20T01:52:20;78842.47;;;-143.60;79.66
68329;BME280;55182;56.864;60.554;2022-11-20T01:54:52;78832.41;;;-143.60;79.75
68329;BME280;55182;56.864;60.554;2022-11-20T01:57:19;78832.41;;;-143.60;79.56
68329;BME280;55182;56.864;60.554;2022-11-20T01:59:48;78826.38;;;-143.60;79.26
68329;BME280;55182;56.864;60.554;2022-11-20T02:02:18;78816.31;;;-143.60;79.20
68329;BME280;55182;56.864;60.554;2022-11-20T02:04:44;78806.28;;;-143.60;78.95
68329;BME280;55182;56.864;60.554;2022-11-20T02:07:09;78806.28;;;-143.60;78.89
68329;BME280;55182;56.864;60.554;2022-11-20T02:09:35;78788.19;;;-143.60;78.68
68329;BME280;55182;56.864;60.554;2022-11-20T02:12:01;78780.13;;;-143.60;78.62
68329;BME280;55182;56.864;60.554;2022-11-20T02:14:26;78776.13;;;-143.60;78.45
68329;BME280;55182;56.864;60.554;2022-11-20T02:16:52;78768.06;;;-143.60;78.52
68329;BME280;55182;56.864;60.554;2022-11-20T02:21:47;78749.97;;;-143.60;78.53
68329;BME280;55182;56.864;60.554;2022-11-20T02:24:15;78739.91;;;-143.60;78.40
68329;BME280;55182;56.864;60.554;2022-11-20T02:26:44;78731.88;;;-143.60;78.64
68329;BME280;55182;56.864;60.554;2022-11-20T02:29:11;78719.81;;;-143.60;78.42
68329;BME280;55182;56.864;60.554;2022-11-20T02:31:37;78715.78;;;-143.60;78.38
68329;BME280;55182;56.864;60.554;2022-11-20T02:34:03;78703.72;;;-143.60;78.25
68329;BME280;55182;56.864;60.554;2022-11-20T02:36:29;78697.69;;;-143.60;78.28
68329;BME280;55182;56.864;60.554;2022-11-20T02:38:55;78687.63;;;-143.60;78.27
68329;BME280;55182;56.864;60.554;2022-11-20T02:41:21;78673.56;;;-143.60;78.40
68329;BME280;55182;56.864;60.554;2022-11-20T02:43:46;78657.47;;;-143.60;78.40
68329;BME280;55182;56.864;60.554;2022-11-20T02:46:12;78649.44;;;-143.60;78.25
68329;BME280;55182;56.864;60.554;2022-11-20T02:48:37;78631.34;;;-143.60;78.14
68329;BME280;55182;56.864;60.554;2022-11-20T02:51:03;78627.31;;;-143.60;78.00
68329;BME280;55182;56.864;60.554;2022-11-20T02:53:28;78619.28;;;-143.60;77.96
68329;BME280;55182;56.864;60.554;2022-11-20T02:55:53;78609.22;;;-143.60;77.88
68329;BME280;55182;56.864;60.554;2022-11-20T02:58:19;78599.16;;;-143.60;77.71
68329;BME280;55182;56.864;60.554;2022-11-20T03:00:44;78593.13;;;-143.60;77.86
68329;BME280;55182;56.864;60.554;2022-11-20T03:03:10;78579.06;;;-143.60;77.76
68329;BME280;55182;56.864;60.554;2022-11-20T03:05:35;78581.06;;;-143.60;77.79
68329;BME280;55182;56.864;60.554;2022-11-20T03:08:01;78571.00;;;-143.60;77.78
68329;BME280;55182;56.864;60.554;2022-11-20T03:10:26;78567.00;;;-143.60;77.42
68329;BME280;55182;56.864;60.554;2022-11-20T03:12:55;78573.03;;;-143.60;77.70
68329;BME280;55182;56.864;60.554;2022-11-20T03:15:20;78564.97;;;-143.60;77.34
68329;BME280;55182;56.864;60.554;2022-11-20T03:17:46;78564.97;;;-143.60;77.29
68329;BME280;55182;56.864;60.554;2022-11-20T03:20:11;78567.00;;;-143.60;77.14
68329;BME280;55182;56.864;60.554;2022-11-20T03:22:37;78558.94;;;-143.60;77.21
68329;BME280;55182;56.864;60.554;2022-11-20T03:25:02;78562.97;;;-143.60;77.16
68329;BME280;55182;56.864;60.554;2022-11-20T03:27:31;78556.94;;;-143.60;77.31
68329;BME280;55182;56.864;60.554;2022-11-20T03:29:56;78548.91;;;-143.60;77.26
68329;BME280;55182;56.864;60.554;2022-11-20T03:32:22;78542.88;;;-143.60;77.38
68329;BME280;55182;56.864;60.554;2022-11-20T03:34:47;78538.84;;;-143.60;77.42
68329;BME280;55182;56.864;60.554;2022-11-20T03:37:12;78534.81;;;-143.60;77.38
68329;BME280;55182;56.864;60.554;2022-11-20T03:39:38;78526.78;;;-143.60;77.19
68329;BME280;55182;56.864;60.554;2022-11-20T03:42:03;78518.75;;;-143.60;77.05
68329;BME280;55182;56.864;60.554;2022-11-20T03:44:29;78506.69;;;-143.60;76.91
68329;BME280;55182;56.864;60.554;2022-11-20T03:46:54;78502.66;;;-143.60;76.78
68329;BME280;55182;56.864;60.554;2022-11-20T03:49:19;78494.59;;;-143.60;76.85
68329;BME280;55182;56.864;60.554;2022-11-20T03:51:45;78484.56;;;-143.60;76.87
68329;BME280;55182;56.864;60.554;2022-11-20T03:54:10;78474.50;;;-143.60;76.98
68329;BME280;55182;56.864;60.554;2022-11-20T03:56:37;78466.47;;;-143.60;76.83
68329;BME280;55182;56.864;60.554;2022-11-20T03:59:03;78462.44;;;-143.60;76.55
68329;BME280;55182;56.864;60.554;2022-11-20T04:01:32;78454.41;;;-143.60;76.51
68329;BME280;55182;56.864;60.554;2022-11-20T04:03:58;78446.34;;;-143.60;76.25
68329;BME280;55182;56.864;60.554;2022-11-20T04:08:48;78442.34;;;-143.60;76.25
68329;BME280;55182;56.864;60.554;2022-11-20T04:11:15;78432.28;;;-143.60;75.99
68329;BME280;55182;56.864;60.554;2022-11-20T04:13:41;78416.19;;;-143.60;75.98
68329;BME280;55182;56.864;60.554;2022-11-20T04:16:07;78410.16;;;-143.60;76.25
68329;BME280;55182;56.864;60.554;2022-11-20T04:18:33;78404.13;;;-143.60;76.39
68329;BME280;55182;56.864;60.554;2022-11-20T04:20:58;78390.06;;;-143.60;76.56
68329;BME280;55182;56.864;60.554;2022-11-20T04:23:24;78386.03;;;-143.60;76.24
68329;BME280;55182;56.864;60.554;2022-11-20T04:25:49;78382.00;;;-143.60;76.03
68329;BME280;55182;56.864;60.554;2022-11-20T04:28:15;78371.97;;;-143.60;75.84
68329;BME280;55182;56.864;60.554;2022-11-20T04:30:40;78361.91;;;-143.60;76.10
68329;BME280;55182;56.864;60.554;2022-11-20T04:33:06;78355.88;;;-143.60;75.88
68329;BME280;55182;56.864;60.554;2022-11-20T04:35:34;78349.84;;;-143.60;75.23
68329;BME280;55182;56.864;60.554;2022-11-20T04:38:00;78339.78;;;-143.60;75.48
68329;BME280;55182;56.864;60.554;2022-11-20T04:40:25;78341.81;;;-143.60;75.50
68329;BME280;55182;56.864;60.554;2022-11-20T04:42:51;78329.75;;;-143.60;75.48
68329;BME280;55182;56.864;60.554;2022-11-20T04:45:17;78329.75;;;-143.60;75.59
68329;BME280;55182;56.864;60.554;2022-11-20T04:47:42;78325.72;;;-143.60;75.19
68329;BME280;55182;56.864;60.554;2022-11-20T04:50:08;78313.66;;;-143.60;75.03
68329;BME280;55182;56.864;60.554;2022-11-20T04:52:33;78315.66;;;-143.60;74.64
68329;BME280;55182;56.864;60.554;2022-11-20T04:54:59;78315.66;;;-143.60;74.60
68329;BME280;55182;56.864;60.554;2022-11-20T04:57:25;78309.63;;;-143.60;74.35
68329;BME280;55182;56.864;60.554;2022-11-20T04:59:50;78301.59;;;-143.60;74.22
68329;BME280;55182;56.864;60.554;2022-11-20T05:02:16;78289.53;;;-143.60;74.61
68329;BME280;55182;56.864;60.554;2022-11-20T05:04:42;78293.56;;;-143.60;74.92
68329;BME280;55182;56.864;60.554;2022-11-20T05:07:07;78279.47;;;-143.60;74.72
68329;BME280;55182;56.864;60.554;2022-11-20T05:09:33;78277.47;;;-143.60;74.54
68329;BME280;55182;56.864;60.554;2022-11-20T05:11:58;78265.41;;;-143.60;73.90
68329;BME280;55182;56.864;60.554;2022-11-20T05:14:23;78265.41;;;-143.60;73.80
68329;BME280;55182;56.864;60.554;2022-11-20T05:16:49;78263.38;;;-143.60;74.06
68329;BME280;55182;56.864;60.554;2022-11-20T05:19:14;78261.38;;;-143.60;74.22
68329;BME280;55182;56.864;60.554;2022-11-20T05:21:40;78241.28;;;-143.60;74.55
68329;BME280;55182;56.864;60.554;2022-11-20T05:24:05;78231.22;;;-143.60;74.58
68329;BME280;55182;56.864;60.554;2022-11-20T05:26:31;78223.19;;;-143.60;73.84
68329;BME280;55182;56.864;60.554;2022-11-20T05:28:56;78217.16;;;-143.60;73.63
68329;BME280;55182;56.864;60.554;2022-11-20T05:31:22;78205.09;;;-143.60;73.65
68329;BME280;55182;56.864;60.554;2022-11-20T05:33:49;78207.09;;;-143.60;73.72
68329;BME280;55182;56.864;60.554;2022-11-20T05:36:14;78195.03;;;-143.60;73.56
68329;BME280;55182;56.864;60.554;2022-11-20T05:38:40;78189.00;;;-143.60;73.28
68329;BME280;55182;56.864;60.554;2022-11-20T05:41:15;78180.97;;;-143.60;73.41
68329;BME280;55182;56.864;60.554;2022-11-20T05:43:42;78164.88;;;-143.60;73.51
68329;BME280;55182;56.864;60.554;2022-11-20T05:46:08;78160.84;;;-143.60;73.48
68329;BME280;55182;56.864;60.554;2022-11-20T05:48:34;78152.81;;;-143.60;73.19
68329;BME280;55182;56.864;60.554;2022-11-20T05:51:00;78152.81;;;-143.60;73.36
68329;BME280;55182;56.864;60.554;2022-11-20T05:53:25;78136.72;;;-143.60;73.49
68329;BME280;55182;56.864;60.554;2022-11-20T05:56:01;78128.69;;;-143.60;73.64
68329;BME280;55182;56.864;60.554;2022-11-20T05:58:27;78116.63;;;-143.60;73.41
68329;BME280;55182;56.864;60.554;2022-11-20T06:00:52;78108.59;;;-143.60;73.75
68329;BME280;55182;56.864;60.554;2022-11-20T06:03:18;78104.56;;;-143.60;73.27
68329;BME280;55182;56.864;60.554;2022-11-20T06:05:44;78104.56;;;-143.60;73.49
68329;BME280;55182;56.864;60.554;2022-11-20T06:08:09;78088.47;;;-143.60;73.44
68329;BME280;55182;56.864;60.554;2022-11-20T06:10:35;78078.44;;;-143.60;72.97
68329;BME280;55182;56.864;60.554;2022-11-20T06:13:00;78076.41;;;-143.60;72.78
68329;BME280;55182;56.864;60.554;2022-11-20T06:15:25;78070.38;;;-143.60;72.51
68329;BME280;55182;56.864;60.554;2022-11-20T06:17:52;78062.34;;;-143.60;72.64
68329;BME280;55182;56.864;60.554;2022-11-20T06:20:17;78052.28;;;-143.60;72.50
68329;BME280;55182;56.864;60.554;2022-11-20T06:22:42;78048.28;;;-143.60;72.27
68329;BME280;55182;56.864;60.554;2022-11-20T06:25:08;78030.19;;;-143.60;71.91
68329;BME280;55182;56.864;60.554;2022-11-20T06:27:33;78022.13;;;-143.60;72.10
68329;BME280;55182;56.864;60.554;2022-11-20T06:29:59;78024.16;;;-143.60;71.97
68329;BME280;55182;56.864;60.554;2022-11-20T06:32:25;78024.16;;;-143.60;71.09
68329;BME280;55182;56.864;60.554;2022-11-20T06:34:51;78034.19;;;-143.60;70.99
68329;BME280;55182;56.864;60.554;2022-11-20T06:37:16;78036.22;;;-143.60;71.08
68329;BME280;55182;56.864;60.554;2022-11-20T06:39:42;78040.22;;;-143.60;71.60
68329;BME280;55182;56.864;60.554;2022-11-20T06:42:07;78040.22;;;-143.60;71.29
68329;BME280;55182;56.864;60.554;2022-11-20T06:44:33;78048.28;;;-143.60;71.45
68329;BME280;55182;56.864;60.554;2022-11-20T06:46:58;78048.28;;;-143.60;71.46
68329;BME280;55182;56.864;60.554;2022-11-20T06:49:23;78052.28;;;-143.60;71.71
68329;BME280;55182;56.864;60.554;2022-11-20T06:51:49;78044.25;;;-143.60;71.97
68329;BME280;55182;56.864;60.554;2022-11-20T06:54:14;78044.25;;;-143.60;71.67
68329;BME280;55182;56.864;60.554;2022-11-20T06:56:40;78038.22;;;-143.60;71.88
68329;BME280;55182;56.864;60.554;2022-11-20T06:59:06;78038.22;;;-143.60;71.83
68329;BME280;55182;56.864;60.554;2022-11-20T07:01:31;78040.22;;;-143.60;72.30
68329;BME280;55182;56.864;60.554;2022-11-20T07:03:57;78036.22;;;-143.60;72.44
68329;BME280;55182;56.864;60.554;2022-11-20T07:06:22;78036.22;;;-143.60;72.65
68329;BME280;55182;56.864;60.554;2022-11-20T07:08:49;78040.22;;;-143.60;72.29
68329;BME280;55182;56.864;60.554;2022-11-20T07:11:15;78050.28;;;-143.60;72.54
68329;BME280;55182;56.864;60.554;2022-11-20T07:13:40;78064.34;;;-143.60;72.51
68329;BME280;55182;56.864;60.554;2022-11-20T07:16:06;78060.34;;;-143.60;72.72
68329;BME280;55182;56.864;60.554;2022-11-20T07:18:32;78056.31;;;-143.60;73.00
68329;BME280;55182;56.864;60.554;2022-11-20T07:21:04;78056.31;;;-143.60;72.96
68329;BME280;55182;56.864;60.554;2022-11-20T07:23:30;78046.25;;;-143.60;72.58
68329;BME280;55182;56.864;60.554;2022-11-20T07:25:55;78032.19;;;-143.60;72.52
68329;BME280;55182;56.864;60.554;2022-11-20T07:28:21;78002.03;;;-143.60;72.10
68329;BME280;55182;56.864;60.554;2022-11-20T07:30:52;77979.91;;;-143.60;71.91
68329;BME280;55182;56.864;60.554;2022-11-20T07:33:18;77963.84;;;-143.60;71.32
68329;BME280;55182;56.864;60.554;2022-11-20T07:35:43;77931.66;;;-143.60;71.11
68329;BME280;55182;56.864;60.554;2022-11-20T07:38:09;77907.53;;;-143.60;71.17
68329;BME280;55182;56.864;60.554;2022-11-20T07:40:35;77881.41;;;-143.60;70.08
68329;BME280;55182;56.864;60.554;2022-11-20T07:43:00;77873.38;;;-143.60;70.80
68329;BME280;55182;56.864;60.554;2022-11-20T07:45:25;77851.25;;;-143.60;69.91
68329;BME280;55182;56.864;60.554;2022-11-20T07:47:51;77833.16;;;-143.60;69.49
68329;BME280;55182;56.864;60.554;2022-11-20T07:50:16;77827.13;;;-143.60;68.46
68329;BME280;55182;56.864;60.554;2022-11-20T07:52:42;77831.16;;;-143.60;69.09
68329;BME280;55182;56.864;60.554;2022-11-20T07:55:08;77843.22;;;-143.60;69.79
68329;BME280;55182;56.864;60.554;2022-11-20T07:57:33;77847.22;;;-143.60;68.81
68329;BME280;55182;56.864;60.554;2022-11-20T07:59:59;77851.25;;;-143.60;69.04
68329;BME280;55182;56.864;60.554;2022-11-20T08:02:24;77837.19;;;-143.60;69.21
68329;BME280;55182;56.864;60.554;2022-11-20T08:04:51;77821.09;;;-143.60;69.08
68329;BME280;55182;56.864;60.554;2022-11-20T08:07:16;77813.06;;;-143.60;67.88
68329;BME280;55182;56.864;60.554;2022-11-20T08:09:42;77807.03;;;-143.60;68.96
68329;BME280;55182;56.864;60.554;2022-11-20T08:12:07;77792.94;;;-143.60;68.04
68329;BME280;55182;56.864;60.554;2022-11-20T08:14:33;77774.84;;;-143.60;68.27
68329;BME280;55182;56.864;60.554;2022-11-20T08:16:58;77764.81;;;-143.60;68.70
68329;BME280;55182;56.864;60.554;2022-11-20T08:19:24;77746.72;;;-143.60;68.12
68329;BME280;55182;56.864;60.554;2022-11-20T08:21:50;77740.69;;;-143.60;68.16
68329;BME280;55182;56.864;60.554;2022-11-20T08:24:15;77730.63;;;-143.60;67.92
68329;BME280;55182;56.864;60.554;2022-11-20T08:26:41;77730.63;;;-143.60;67.70
68329;BME280;55182;56.864;60.554;2022-11-20T08:29:06;77738.69;;;-143.60;68.25
68329;BME280;55182;56.864;60.554;2022-11-20T08:31:32;77734.66;;;-143.60;68.65
68329;BME280;55182;56.864;60.554;2022-11-20T08:33:58;77732.63;;;-143.60;69.24
68329;BME280;55182;56.864;60.554;2022-11-20T08:36:23;77734.66;;;-143.60;68.46
68329;BME280;55182;56.864;60.554;2022-11-20T08:38:50;77738.69;;;-143.60;68.12
68329;BME280;55182;56.864;60.554;2022-11-20T08:41:16;77736.66;;;-143.60;67.92
68329;BME280;55182;56.864;60.554;2022-11-20T08:43:42;77738.69;;;-143.60;66.21
68329;BME280;55182;56.864;60.554;2022-11-20T08:46:07;77738.69;;;-143.60;66.04
68329;BME280;55182;56.864;60.554;2022-11-20T08:48:33;77744.69;;;-143.60;65.23
68329;BME280;55182;56.864;60.554;2022-11-20T08:50:58;77740.69;;;-143.60;65.10
68329;BME280;55182;56.864;60.554;2022-11-20T08:53:24;77738.69;;;-143.60;64.95
68329;BME280;55182;56.864;60.554;2022-11-20T08:55:50;77746.72;;;-143.60;64.99
68329;BME280;55182;56.864;60.554;2022-11-20T08:58:15;77738.69;;;-143.60;65.21
68329;BME280;55182;56.864;60.554;2022-11-20T09:00:40;77730.63;;;-143.60;65.07
68329;BME280;55182;56.864;60.554;2022-11-20T09:03:06;77726.59;;;-143.60;64.99
68329;BME280;55182;56.864;60.554;2022-11-20T09:05:31;77714.56;;;-143.60;65.25
68329;BME280;55182;56.864;60.554;2022-11-20T09:07:57;77706.50;;;-143.60;64.33
68329;BME280;55182;56.864;60.554;2022-11-20T09:10:22;77710.53;;;-143.60;63.92
68329;BME280;55182;56.864;60.554;2022-11-20T09:12:48;77714.56;;;-143.60;64.04
68329;BME280;55182;56.864;60.554;2022-11-20T09:15:14;77714.56;;;-143.60;65.03
68329;BME280;55182;56.864;60.554;2022-11-20T09:17:39;77714.56;;;-143.60;65.29
68329;BME280;55182;56.864;60.554;2022-11-20T09:20:05;77722.59;;;-143.60;65.37
68329;BME280;55182;56.864;60.554;2022-11-20T09:22:30;77720.59;;;-143.60;65.23
68329;BME280;55182;56.864;60.554;2022-11-20T09:24:56;77724.59;;;-143.60;65.43
68329;BME280;55182;56.864;60.554;2022-11-20T09:27:21;77726.59;;;-143.60;65.71
68329;BME280;55182;56.864;60.554;2022-11-20T09:29:47;77714.56;;;-143.60;65.87
68329;BME280;55182;56.864;60.554;2022-11-20T09:32:12;77720.59;;;-143.60;66.09
68329;BME280;55182;56.864;60.554;2022-11-20T09:34:37;77710.53;;;-143.60;65.60
68329;BME280;55182;56.864;60.554;2022-11-20T09:37:03;77706.50;;;-143.60;65.83
68329;BME280;55182;56.864;60.554;2022-11-20T09:39:29;77702.50;;;-143.60;65.52
68329;BME280;55182;56.864;60.554;2022-11-20T09:55:08;77652.22;;;-143.60;64.49
68329;BME280;55182;56.864;60.554;2022-11-20T09:57:36;77646.19;;;-143.60;64.09
68329;BME280;55182;56.864;60.554;2022-11-20T10:00:03;77642.19;;;-143.60;64.81
68329;BME280;55182;56.864;60.554;2022-11-20T10:05:21;77630.13;;;-143.60;65.78
68329;BME280;55182;56.864;60.554;2022-11-20T10:07:57;77622.06;;;-143.60;64.94
68329;BME280;55182;56.864;60.554;2022-11-20T10:13:39;77610.00;;;-143.60;65.54
68329;BME280;55182;56.864;60.554;2022-11-20T10:29:15;77618.06;;;-143.60;67.37
68329;BME280;55182;56.864;60.554;2022-11-20T10:31:45;77614.03;;;-143.60;67.36
68329;BME280;55182;56.864;60.554;2022-11-20T10:34:20;77614.03;;;-143.60;67.88
68329;BME280;55182;56.864;60.554;2022-11-20T10:36:54;77616.06;;;-143.60;68.02
68329;BME280;55182;56.864;60.554;2022-11-20T10:39:39;77614.03;;;-143.60;68.10
68329;BME280;55182;56.864;60.554;2022-11-20T10:42:15;77601.97;;;-143.60;68.33
68329;BME280;55182;56.864;60.554;2022-11-20T10:44:42;77618.06;;;-143.60;68.03
68329;BME280;55182;56.864;60.554;2022-11-20T10:47:15;77634.13;;;-143.60;68.20
68329;BME280;55182;56.864;60.554;2022-11-20T10:49:41;77638.16;;;-143.60;68.69
68329;BME280;55182;56.864;60.554;2022-11-20T10:52:29;77638.16;;;-143.60;68.88
68329;BME280;55182;56.864;60.554;2022-11-20T11:00:12;77674.34;;;-143.60;67.62
68329;BME280;55182;56.864;60.554;2022-11-20T11:02:47;77684.41;;;-143.60;67.55
68329;BME280;55182;56.864;60.554;2022-11-20T11:07:57;77694.44;;;-143.60;68.54
68329;BME280;55182;56.864;60.554;2022-11-20T11:10:28;77698.47;;;-143.60;68.44
68329;BME280;55182;56.864;60.554;2022-11-20T11:12:57;77706.50;;;-143.60;68.16
68329;BME280;55182;56.864;60.554;2022-11-20T11:15:27;77710.53;;;-143.60;68.22
68329;BME280;55182;56.864;60.554;2022-11-20T11:17:53;77724.59;;;-143.60;68.21
68329;BME280;55182;56.864;60.554;2022-11-20T11:20:20;77734.66;;;-143.60;68.77
68329;BME280;55182;56.864;60.554;2022-11-20T11:22:48;77732.63;;;-143.60;68.87
68329;BME280;55182;56.864;60.554;2022-11-20T11:25:20;77736.66;;;-143.60;69.23
68329;BME280;55182;56.864;60.554;2022-11-20T11:27:47;77746.72;;;-143.60;69.64
68329;BME280;55182;56.864;60.554;2022-11-20T11:30:14;77750.72;;;-143.60;69.70
68329;BME280;55182;56.864;60.554;2022-11-20T11:32:39;77754.75;;;-143.60;69.76
68329;BME280;55182;56.864;60.554;2022-11-20T11:35:06;77766.81;;;-143.60;69.77
68329;BME280;55182;56.864;60.554;2022-11-20T11:37:35;77766.81;;;-143.60;70.31
68329;BME280;55182;56.864;60.554;2022-11-20T11:40:02;77778.88;;;-143.60;70.10
68329;BME280;55182;56.864;60.554;2022-11-20T11:42:28;77778.88;;;-143.60;70.30
68329;BME280;55182;56.864;60.554;2022-11-20T11:44:53;77776.88;;;-143.60;70.59
68329;BME280;55182;56.864;60.554;2022-11-20T11:47:23;77788.94;;;-143.60;70.92
68329;BME280;55182;56.864;60.554;2022-11-20T11:49:49;77792.94;;;-143.60;71.02
68329;BME280;55182;56.864;60.554;2022-11-20T11:52:25;77790.94;;;-143.60;71.09
68329;BME280;55182;56.864;60.554;2022-11-20T11:54:52;77794.97;;;-143.60;71.01
68329;BME280;55182;56.864;60.554;2022-11-20T12:02:37;77811.03;;;-143.60;71.61
68329;BME280;55182;56.864;60.554;2022-11-20T12:07:38;77821.09;;;-143.60;72.15
68329;BME280;55182;56.864;60.554;2022-11-20T12:10:04;77837.19;;;-143.60;72.76
68329;BME280;55182;56.864;60.554;2022-11-20T12:12:37;77835.16;;;-143.60;72.13
68329;BME280;55182;56.864;60.554;2022-11-20T12:15:16;77835.16;;;-143.60;72.41
68329;BME280;55182;56.864;60.554;2022-11-20T12:17:45;77839.19;;;-143.60;72.26
68329;BME280;55182;56.864;60.554;2022-11-20T12:20:11;77847.22;;;-143.60;72.27
68329;BME280;55182;56.864;60.554;2022-11-20T12:25:14;77839.19;;;-143.60;72.20
68329;BME280;55182;56.864;60.554;2022-11-20T12:27:47;77849.25;;;-143.60;72.56
68329;BME280;55182;56.864;60.554;2022-11-20T12:30:19;77851.25;;;-143.60;72.82
68329;BME280;55182;56.864;60.554;2022-11-20T12:32:54;77855.28;;;-143.60;73.11
68329;BME280;55182;56.864;60.554;2022-11-20T12:35:32;77863.31;;;-143.60;73.81
68329;BME280;55182;56.864;60.554;2022-11-20T12:53:08;77899.50;;;-143.60;75.70
68329;BME280;55182;56.864;60.554;2022-11-20T12:55:46;77907.53;;;-143.60;75.87
68329;BME280;55182;56.864;60.554;2022-11-20T12:58:17;77917.59;;;-143.60;75.54
68329;BME280;55182;56.864;60.554;2022-11-20T13:00:50;77917.59;;;-143.60;75.63
68329;BME280;55182;56.864;60.554;2022-11-20T13:08:33;77923.63;;;-143.60;75.58
68329;BME280;55182;56.864;60.554;2022-11-20T13:13:46;77935.69;;;-143.60;75.81
68329;BME280;55182;56.864;60.554;2022-11-20T13:16:24;77931.66;;;-143.60;75.74
68329;BME280;55182;56.864;60.554;2022-11-20T13:18:51;77943.72;;;-143.60;75.99
68329;BME280;55182;56.864;60.554;2022-11-20T13:21:34;77959.81;;;-143.60;76.44
68329;BME280;55182;56.864;60.554;2022-11-20T13:26:43;77967.84;;;-143.60;76.59
68329;BME280;55182;56.864;60.554;2022-11-20T13:29:11;77975.91;;;-143.60;76.93
68329;BME280;55182;56.864;60.554;2022-11-20T13:31:37;77979.91;;;-143.60;76.90
68329;BME280;55182;56.864;60.554;2022-11-20T13:34:06;77991.97;;;-143.60;76.94
68329;BME280;55182;56.864;60.554;2022-11-20T13:36:32;77998.00;;;-143.60;77.24
68329;BME280;55182;56.864;60.554;2022-11-20T13:38:58;78008.06;;;-143.60;77.44
68329;BME280;55182;56.864;60.554;2022-11-20T13:41:36;78012.09;;;-143.60;77.83
68329;BME280;55182;56.864;60.554;2022-11-20T13:44:21;78010.06;;;-143.60;77.88
68329;BME280;55182;56.864;60.554;2022-11-20T13:46:49;78010.06;;;-143.60;77.66
68329;BME280;55182;56.864;60.554;2022-11-20T13:49:59;78000.03;;;-143.60;77.40